Time;durP1;ratioP1;P1;durP2;ratioP2;P2;SDS_P1;SDS_P2;PMS_P1;PMS_P2;Temp;Humidity;BMP_temperature;BMP_pressure;BME280_temperature;BME280_humidity;BME280_pressure;Samples;Min_cycle;Max_cycle;Signal;HPM_P1;HPM_P2
2022/05/23 00:00:22;;;;;;;;;;;;;;;19.91;59.04;100607.38;1049730;28;699;-67
2022/05/23 00:01:13;;;;;;;;;;;;;;;19.91;59.23;100607.38;1049897;28;684;-67
2022/05/23 00:02:03;;;;;;;;;;;;;;;19.92;58.97;100613.66;1053352;28;700;-66
2022/05/23 00:02:54;;;;;;;;;;;;;;;19.91;59.15;100604.69;1054048;28;640;-66
2022/05/23 00:03:44;;;;;;;;;;;;;;;19.90;59.61;100605.69;1049475;28;688;-69
2022/05/23 00:04:35;;;;;;;;;;;;;;;19.90;59.16;100604.84;1048888;28;716;-69
2022/05/23 00:05:25;;;;;;;;;;;;;;;19.89;59.11;100603.16;1049113;28;625;-67
2022/05/23 00:06:16;;;;;;;;;;;;;;;19.89;59.02;100597.75;1049204;28;707;-66
2022/05/23 00:07:07;;;;;;;;;;;;;;;19.88;58.92;100593.38;1054107;27;1444;-66
2022/05/23 00:07:59;;;;;;;;;;;;;;;19.89;59.80;100600.44;1057878;28;647;-66
2022/05/23 00:08:52;;;;;;;;;;;;;;;19.88;59.63;100590.69;1053333;28;687;-66
2022/05/23 00:09:42;;;;;;;;;;;;;;;19.87;59.30;100592.53;1049798;28;629;-66
2022/05/23 00:10:33;;;;;;;;;;;;;;;19.87;59.41;100589.84;1048533;28;732;-67
2022/05/23 00:11:23;;;;;;;;;;;;;;;19.87;59.79;100584.41;1049063;28;1699;-66
2022/05/23 00:12:14;;;;;;;;;;;;;;;19.88;59.01;100587.97;1049791;28;681;-67
2022/05/23 00:13:04;;;;;;;;;;;;;;;19.87;59.32;100580.88;1049888;28;1021;-67
2022/05/23 00:13:54;;;;;;;;;;;;;;;19.88;59.08;100582.56;1049707;28;734;-67
2022/05/23 00:14:45;;;;;;;;;;;;;;;19.87;59.42;100583.56;1050794;28;668;-67
2022/05/23 00:15:35;;;;;;;;;;;;;;;19.87;59.15;100583.56;1049556;28;640;-67
2022/05/23 00:16:26;;;;;;;;;;;;;;;19.87;59.53;100583.56;1050612;28;664;-67
2022/05/23 00:17:16;;;;;;;;;;;;;;;19.85;58.97;100575.63;1050879;28;629;-67
2022/05/23 00:18:07;;;;;;;;;;;;;;;19.86;59.04;100576.47;1049938;28;1671;-67
2022/05/23 00:18:58;;;;;;;;;;;;;;;19.85;58.96;100570.22;1049716;28;629;-67
2022/05/23 00:19:49;;;;;;;;;;;;;;;19.84;59.88;100571.22;1053000;28;661;-67
2022/05/23 00:20:39;;;;;;;;;;;;;;;19.86;58.94;100571.06;1054584;27;858;-67
2022/05/23 00:21:29;;;;;;;;;;;;;;;19.85;59.65;100574.78;1049445;28;641;-67
2022/05/23 00:22:20;;;;;;;;;;;;;;;19.84;59.20;100568.53;1044775;28;649;-67
2022/05/23 00:23:10;;;;;;;;;;;;;;;19.84;59.69;100562.25;1046539;28;711;-67
2022/05/23 00:24:01;;;;;;;;;;;;;;;19.84;58.96;100568.53;1048688;28;1959;-67
2022/05/23 00:24:51;;;;;;;;;;;;;;;19.84;59.48;100554.16;1049604;28;700;-67
2022/05/23 00:25:41;;;;;;;;;;;;;;;19.84;58.92;100562.25;1049071;28;661;-68
2022/05/23 00:26:32;;;;;;;;;;;;;;;19.84;59.32;100554.16;1050216;28;696;-67
2022/05/23 00:27:23;;;;;;;;;;;;;;;19.84;59.33;100554.16;1048875;28;618;-67
2022/05/23 00:28:13;;;;;;;;;;;;;;;19.84;59.45;100551.44;1049536;28;653;-67
2022/05/23 00:29:03;;;;;;;;;;;;;;;19.83;59.45;100552.47;1049677;28;696;-67
2022/05/23 00:29:54;;;;;;;;;;;;;;;19.82;59.57;100543.50;1049001;28;653;-67
2022/05/23 00:30:45;;;;;;;;;;;;;;;19.82;59.27;100548.06;1048967;28;693;-67
2022/05/23 00:31:36;;;;;;;;;;;;;;;19.81;59.01;100547.22;1049132;28;661;-67
2022/05/23 00:35:53;;;;;;;;;;;;;;;19.80;59.61;100544.66;1050444;28;1697;-67
2022/05/23 00:36:44;;;;;;;;;;;;;;;19.81;59.72;100549.06;1049557;28;649;-66
2022/05/23 00:37:34;;;;;;;;;;;;;;;19.79;59.67;100543.81;1049632;28;629;-67
2022/05/23 00:38:25;;;;;;;;;;;;;;;19.79;59.51;100541.13;1049364;28;676;-67
2022/05/23 00:39:15;;;;;;;;;;;;;;;19.79;59.19;100537.56;1049557;28;636;-67
2022/05/23 00:40:05;;;;;;;;;;;;;;;19.79;58.89;100534.88;1049667;28;621;-68
2022/05/23 00:43:14;;;;;;;;;;;;;;;19.77;59.64;100530.47;1050123;28;653;-68
2022/05/23 00:44:05;;;;;;;;;;;;;;;19.76;59.37;100523.38;1049491;28;1910;-68
2022/05/23 00:44:55;;;;;;;;;;;;;;;19.77;58.96;100525.06;1049474;28;728;-68
2022/05/23 00:45:46;;;;;;;;;;;;;;;19.77;59.64;100524.22;1049540;28;697;-68
2022/05/23 00:46:36;;;;;;;;;;;;;;;19.77;58.93;100521.50;1049402;28;665;-66
2022/05/23 00:47:27;;;;;;;;;;;;;;;19.77;59.56;100524.22;1049491;28;681;-66
2022/05/23 00:48:17;;;;;;;;;;;;;;;19.77;59.61;100519.66;1049621;28;684;-66
2022/05/23 00:49:08;;;;;;;;;;;;;;;19.76;58.87;100517.13;1053844;28;637;-67
2022/05/23 00:49:58;;;;;;;;;;;;;;;19.76;58.98;100519.81;1053033;28;658;-66
2022/05/23 00:50:49;;;;;;;;;;;;;;;19.75;59.74;100510.84;1048493;28;713;-66
2022/05/23 00:51:39;;;;;;;;;;;;;;;19.75;59.05;100510.00;1049281;28;637;-66
2022/05/23 00:52:30;;;;;;;;;;;;;;;19.75;59.39;100515.41;1048006;28;720;-66
2022/05/23 00:53:20;;;;;;;;;;;;;;;19.74;59.28;100508.31;1052210;28;1845;-66
2022/05/23 00:54:11;;;;;;;;;;;;;;;19.74;59.31;100503.75;1053159;28;695;-66
2022/05/23 00:55:01;;;;;;;;;;;;;;;19.73;59.19;100504.78;1053009;28;637;-66
2022/05/23 00:55:52;;;;;;;;;;;;;;;19.73;59.03;100502.06;1052668;28;662;-66
2022/05/23 00:56:43;;;;;;;;;;;;;;;19.73;58.95;100498.50;1052606;28;633;-65
2022/05/23 00:57:33;;;;;;;;;;;;;;;19.72;59.36;100494.97;1052628;28;681;-65
2022/05/23 00:58:24;;;;;;;;;;;;;;;19.72;59.11;100499.53;1052767;28;680;-65
2022/05/23 00:59:14;;;;;;;;;;;;;;;19.73;59.20;100495.81;1052508;28;675;-66
2022/05/23 01:00:05;;;;;;;;;;;;;;;19.72;59.26;100494.97;1052674;28;696;-66
2022/05/23 01:00:55;;;;;;;;;;;;;;;19.71;59.34;100493.28;1052979;28;634;-66
2022/05/23 01:01:45;;;;;;;;;;;;;;;19.72;59.67;100494.13;1052483;28;626;-66
2022/05/23 01:02:36;;;;;;;;;;;;;;;19.72;58.92;100497.66;1053082;28;704;-66
2022/05/23 01:03:26;;;;;;;;;;;;;;;19.71;58.94;100493.28;1053014;28;637;-67
2022/05/23 01:04:17;;;;;;;;;;;;;;;19.73;58.93;100490.41;1053029;28;1974;-67
2022/05/23 01:05:08;;;;;;;;;;;;;;;19.72;59.15;100494.13;1053082;28;649;-66
2022/05/23 01:05:58;;;;;;;;;;;;;;;19.71;59.22;100490.56;1052311;28;657;-68
2022/05/23 01:06:49;;;;;;;;;;;;;;;19.71;58.90;100489.72;1053103;28;707;-68
2022/05/23 01:07:39;;;;;;;;;;;;;;;19.71;59.03;100495.13;1052910;28;700;-66
2022/05/23 01:08:29;;;;;;;;;;;;;;;19.71;59.50;100497.84;1052570;28;720;-66
2022/05/23 01:09:22;;;;;;;;;;;;;;;19.71;59.67;100500.53;1052353;28;646;-66
2022/05/23 01:10:13;;;;;;;;;;;;;;;19.69;58.99;100489.91;1053056;28;684;-66
2022/05/23 01:11:03;;;;;;;;;;;;;;;19.69;59.67;100489.91;1053813;28;641;-66
2022/05/23 01:11:54;;;;;;;;;;;;;;;19.69;59.33;100494.47;1053205;28;829;-66
2022/05/23 01:12:44;;;;;;;;;;;;;;;19.68;59.58;100490.94;1049705;28;1747;-66
2022/05/23 01:13:35;;;;;;;;;;;;;;;19.68;59.06;100493.63;1052533;28;1321;-66
2022/05/23 01:14:25;;;;;;;;;;;;;;;19.68;58.83;100485.53;1053661;28;629;-67
2022/05/23 01:15:15;;;;;;;;;;;;;;;19.68;59.32;100490.94;1052456;28;1500;-69
2022/05/23 01:16:06;;;;;;;;;;;;;;;19.67;58.77;100486.53;1053637;28;657;-70
2022/05/23 01:16:56;;;;;;;;;;;;;;;19.68;59.35;100485.53;1053089;28;668;-67
2022/05/23 01:17:48;;;;;;;;;;;;;;;19.65;58.86;100483.16;1053470;28;629;-67
2022/05/23 01:18:38;;;;;;;;;;;;;;;19.66;59.12;100482.13;1052849;28;725;-67
2022/05/23 01:19:28;;;;;;;;;;;;;;;19.66;58.85;100479.44;1053159;28;636;-68
2022/05/23 01:20:19;;;;;;;;;;;;;;;19.66;58.96;100473.19;1052737;28;654;-66
2022/05/23 01:21:09;;;;;;;;;;;;;;;19.66;59.07;100476.72;1052585;28;625;-67
2022/05/23 01:22:00;;;;;;;;;;;;;;;19.66;59.44;100479.44;1052504;28;759;-66
2022/05/23 01:22:50;;;;;;;;;;;;;;;19.65;59.40;100472.34;1051648;28;685;-66
2022/05/23 01:23:40;;;;;;;;;;;;;;;19.65;58.86;100471.50;1052479;28;634;-65
2022/05/23 01:24:31;;;;;;;;;;;;;;;19.65;58.91;100475.03;1057507;28;1945;-65
2022/05/23 01:25:21;;;;;;;;;;;;;;;19.64;59.44;100465.22;1057609;28;699;-65
2022/05/23 01:26:12;;;;;;;;;;;;;;;19.64;59.58;100465.22;1053434;28;711;-65
2022/05/23 01:27:02;;;;;;;;;;;;;;;19.63;58.99;100471.66;1052953;28;820;-65
2022/05/23 01:27:53;;;;;;;;;;;;;;;19.63;59.16;100471.66;1052124;28;1754;-66
2022/05/23 01:28:44;;;;;;;;;;;;;;;19.64;58.92;100469.78;1052901;28;637;-65
2022/05/23 01:29:34;;;;;;;;;;;;;;;19.63;59.64;100468.09;1052356;28;701;-65
2022/05/23 01:30:24;;;;;;;;;;;;;;;19.63;59.71;100478.91;1052061;28;1581;-66
2022/05/23 01:31:16;;;;;;;;;;;;;;;19.62;59.47;100469.97;1052903;28;680;-66
2022/05/23 01:32:06;;;;;;;;;;;;;;;19.62;59.52;100471.81;1057494;28;625;-66
2022/05/23 01:32:57;;;;;;;;;;;;;;;19.62;58.78;100477.22;1057493;28;659;-66
2022/05/23 01:33:47;;;;;;;;;;;;;;;19.62;59.61;100480.78;1049180;28;640;-66
2022/05/23 01:34:38;;;;;;;;;;;;;;;19.62;59.00;100486.19;1049606;28;708;-65
2022/05/23 01:35:28;;;;;;;;;;;;;;;19.61;58.88;100484.50;1053627;28;649;-65
2022/05/23 01:36:19;;;;;;;;;;;;;;;19.62;59.45;100482.63;1052993;28;668;-65
2022/05/23 01:37:09;;;;;;;;;;;;;;;19.60;59.34;100485.50;1054179;28;839;-65
2022/05/23 01:38:00;;;;;;;;;;;;;;;19.61;59.05;100489.03;1052403;28;665;-65
2022/05/23 01:38:50;;;;;;;;;;;;;;;19.61;59.59;100492.59;1052843;28;677;-66
2022/05/23 01:39:40;;;;;;;;;;;;;;;19.61;59.08;100484.50;1052992;28;641;-66
2022/05/23 01:40:31;;;;;;;;;;;;;;;19.60;58.85;100487.34;1052554;28;617;-66
2022/05/23 01:41:21;;;;;;;;;;;;;;;19.60;59.12;100484.66;1051105;28;1671;-66
2022/05/23 01:42:12;;;;;;;;;;;;;;;19.59;59.40;100483.81;1049441;28;708;-66
2022/05/23 01:43:02;;;;;;;;;;;;;;;19.59;59.28;100482.97;1049269;28;732;-66
2022/05/23 01:43:53;;;;;;;;;;;;;;;19.58;58.87;100487.53;1048864;28;972;-66
2022/05/23 01:44:44;;;;;;;;;;;;;;;19.58;59.13;100481.25;1049376;28;661;-66
2022/05/23 01:45:34;;;;;;;;;;;;;;;19.59;58.87;100482.97;1049447;28;625;-66
2022/05/23 01:46:25;;;;;;;;;;;;;;;19.58;59.17;100483.97;1049406;28;661;-66
2022/05/23 01:47:15;;;;;;;;;;;;;;;19.57;59.36;100485.81;1048697;28;629;-66
2022/05/23 01:48:06;;;;;;;;;;;;;;;19.57;59.08;100482.28;1049421;28;672;-66
2022/05/23 01:48:56;;;;;;;;;;;;;;;19.57;59.48;100484.97;1049365;28;633;-66
2022/05/23 01:49:46;;;;;;;;;;;;;;;19.57;59.24;100484.97;1049386;28;680;-66
2022/05/23 01:50:37;;;;;;;;;;;;;;;19.57;59.56;100488.53;1044467;28;652;-66
2022/05/23 01:51:30;;;;;;;;;;;;;;;19.57;58.91;100485.81;1045437;28;609;-66
2022/05/23 01:52:21;;;;;;;;;;;;;;;19.57;59.16;100485.81;1050004;28;687;-66
2022/05/23 01:53:11;;;;;;;;;;;;;;;19.56;59.17;100478.72;1048089;28;813;-65
2022/05/23 01:54:01;;;;;;;;;;;;;;;19.55;59.67;100474.31;1048243;28;661;-65
2022/05/23 01:54:52;;;;;;;;;;;;;;;19.56;58.90;100483.28;1048940;28;696;-65
2022/05/23 01:55:42;;;;;;;;;;;;;;;19.54;59.57;100480.75;1048743;28;621;-64
2022/05/23 01:56:33;;;;;;;;;;;;;;;19.56;59.00;100485.97;1050027;28;761;-66
2022/05/23 01:57:23;;;;;;;;;;;;;;;19.55;59.51;100482.44;1049359;28;661;-67
2022/05/23 01:58:14;;;;;;;;;;;;;;;19.54;58.84;100478.03;1049481;28;597;-67
2022/05/23 02:01:25;;;;;;;;;;;;;;;19.53;59.59;100478.22;1053007;28;980;-67
2022/05/23 02:02:15;;;;;;;;;;;;;;;19.53;58.89;100467.41;1052437;28;672;-67
2022/05/23 02:03:06;;;;;;;;;;;;;;;19.53;58.89;100467.41;1052427;28;630;-65
2022/05/23 02:03:56;;;;;;;;;;;;;;;19.53;59.08;100468.25;1052223;28;649;-66
2022/05/23 02:04:47;;;;;;;;;;;;;;;19.51;58.89;100461.34;1052420;28;626;-67
2022/05/23 02:05:37;;;;;;;;;;;;;;;19.53;58.98;100462.84;1053552;28;648;-66
2022/05/23 02:06:28;;;;;;;;;;;;;;;19.52;59.01;100466.56;1053854;28;625;-66
2022/05/23 02:07:18;;;;;;;;;;;;;;;19.52;59.08;100465.72;1053247;28;1694;-66
2022/05/23 02:08:09;;;;;;;;;;;;;;;19.50;59.01;100465.91;1053729;28;657;-66
2022/05/23 02:08:59;;;;;;;;;;;;;;;19.50;59.48;100463.19;1054229;28;692;-66
2022/05/23 02:09:49;;;;;;;;;;;;;;;19.51;59.07;100466.75;1053845;28;655;-66
2022/05/23 02:10:40;;;;;;;;;;;;;;;19.51;58.68;100469.44;1053815;28;617;-66
2022/05/23 02:11:30;;;;;;;;;;;;;;;19.50;58.48;100463.19;1053128;28;654;-66
2022/05/23 02:12:21;;;;;;;;;;;;;;;19.51;58.85;100464.88;1053302;28;719;-65
2022/05/23 02:13:11;;;;;;;;;;;;;;;19.50;59.16;100468.59;1054088;28;691;-66
2022/05/23 02:14:01;;;;;;;;;;;;;;;19.51;58.87;100464.03;1054275;28;657;-67
2022/05/23 02:14:52;;;;;;;;;;;;;;;19.49;59.50;100464.16;1054305;28;657;-66
2022/05/23 02:15:42;;;;;;;;;;;;;;;19.50;59.27;100467.75;1053753;28;665;-66
2022/05/23 02:16:33;;;;;;;;;;;;;;;19.49;58.74;100466.03;1052908;28;1670;-67
2022/05/23 02:17:23;;;;;;;;;;;;;;;19.49;58.81;100461.47;1049560;28;692;-66
2022/05/23 02:18:14;;;;;;;;;;;;;;;19.49;59.08;100466.03;1049520;28;623;-67
2022/05/23 02:19:04;;;;;;;;;;;;;;;19.49;59.19;100457.91;1048776;28;630;-66
2022/05/23 02:19:54;;;;;;;;;;;;;;;19.48;58.57;100459.78;1049525;28;626;-66
2022/05/23 02:20:45;;;;;;;;;;;;;;;19.47;59.56;100458.09;1049025;28;657;-66
2022/05/23 02:21:35;;;;;;;;;;;;;;;19.48;59.21;100464.34;1049429;28;646;-67
2022/05/23 02:22:26;;;;;;;;;;;;;;;19.48;58.82;100458.94;1049031;28;668;-66
2022/05/23 02:23:18;;;;;;;;;;;;;;;19.47;59.25;100462.66;1050052;28;669;-64
2022/05/23 02:24:09;;;;;;;;;;;;;;;19.47;59.53;100465.34;1049484;28;1983;-64
2022/05/23 02:24:59;;;;;;;;;;;;;;;19.46;58.76;100460.94;1049273;28;780;-64
2022/05/23 02:25:49;;;;;;;;;;;;;;;19.47;58.80;100466.19;1049541;28;939;-66
2022/05/23 02:26:40;;;;;;;;;;;;;;;19.46;59.29;100459.09;1049560;28;681;-69
2022/05/23 02:27:30;;;;;;;;;;;;;;;19.46;59.43;100455.53;1049643;28;592;-68
2022/05/23 02:28:21;;;;;;;;;;;;;;;19.46;59.01;100460.94;1049067;28;638;-68
2022/05/23 02:29:14;;;;;;;;;;;;;;;19.45;59.06;100460.09;1049429;28;653;-67
2022/05/23 02:30:04;;;;;;;;;;;;;;;19.45;59.61;100460.09;1048874;28;701;-68
2022/05/23 02:30:55;;;;;;;;;;;;;;;19.46;59.10;100455.53;1049478;28;716;-67
2022/05/23 02:31:48;;;;;;;;;;;;;;;19.45;58.95;100456.56;1049564;28;677;-68
2022/05/23 02:32:39;;;;;;;;;;;;;;;19.45;58.93;100459.25;1049427;28;685;-68
2022/05/23 02:33:29;;;;;;;;;;;;;;;19.44;59.00;100453.00;1049576;28;625;-68
2022/05/23 02:34:19;;;;;;;;;;;;;;;19.43;58.77;100451.31;1049447;28;622;-68
2022/05/23 02:35:10;;;;;;;;;;;;;;;19.44;58.85;100453.00;1049337;28;713;-68
2022/05/23 02:36:00;;;;;;;;;;;;;;;19.44;58.75;100447.59;1048818;28;705;-68
2022/05/23 02:36:51;;;;;;;;;;;;;;;19.43;59.50;100445.91;1049092;28;752;-69
2022/05/23 02:37:41;;;;;;;;;;;;;;;19.43;59.21;100451.31;1049510;28;634;-67
2022/05/23 02:38:31;;;;;;;;;;;;;;;19.43;59.12;100445.91;1053581;28;606;-68
2022/05/23 02:39:22;;;;;;;;;;;;;;;19.43;59.04;100441.34;1054972;27;664;-68
2022/05/23 02:40:12;;;;;;;;;;;;;;;19.42;59.12;100445.06;1049707;28;680;-68
2022/05/23 02:41:03;;;;;;;;;;;;;;;19.42;58.80;100436.09;1049446;28;812;-67
2022/05/23 02:41:53;;;;;;;;;;;;;;;19.42;59.55;100438.81;1050088;28;727;-66
2022/05/23 02:42:44;;;;;;;;;;;;;;;19.41;59.22;100437.13;1049473;28;643;-66
2022/05/23 02:43:34;;;;;;;;;;;;;;;19.41;58.62;100437.13;1049366;28;648;-66
2022/05/23 02:44:24;;;;;;;;;;;;;;;19.40;59.31;100430.03;1049155;28;1878;-66
2022/05/23 02:45:15;;;;;;;;;;;;;;;19.41;58.95;100431.72;1048898;28;751;-67
2022/05/23 02:46:05;;;;;;;;;;;;;;;19.40;58.69;100432.72;1048739;28;614;-67
2022/05/23 02:46:56;;;;;;;;;;;;;;;19.41;58.72;100434.41;1048933;28;602;-67
2022/05/23 02:47:46;;;;;;;;;;;;;;;19.40;59.28;100436.28;1049504;28;696;-67
2022/05/23 02:48:37;;;;;;;;;;;;;;;19.40;59.05;100435.44;1051637;28;1263;-66
2022/05/23 02:49:27;;;;;;;;;;;;;;;19.41;58.49;100431.72;1053501;28;621;-66
2022/05/23 02:50:18;;;;;;;;;;;;;;;19.41;59.24;100437.13;1054064;28;703;-67
2022/05/23 02:51:08;;;;;;;;;;;;;;;19.39;59.03;100428.31;1053593;28;594;-67
2022/05/23 02:51:58;;;;;;;;;;;;;;;19.40;59.11;100424.63;1052802;28;1690;-67
2022/05/23 02:52:49;;;;;;;;;;;;;;;19.40;59.19;100430.03;1053126;28;656;-67
2022/05/23 02:53:39;;;;;;;;;;;;;;;19.39;59.16;100426.47;1052915;28;586;-67
2022/05/23 02:54:30;;;;;;;;;;;;;;;19.39;58.88;100423.78;1053744;28;653;-68
2022/05/23 02:55:20;;;;;;;;;;;;;;;19.39;59.62;100428.31;1053548;28;711;-66
2022/05/23 02:56:11;;;;;;;;;;;;;;;19.38;59.26;100418.53;1052984;28;646;-66
2022/05/23 02:57:01;;;;;;;;;;;;;;;19.38;58.91;100421.22;1058083;28;716;-67
2022/05/23 02:57:51;;;;;;;;;;;;;;;19.38;59.05;100418.53;1058046;28;703;-67
2022/05/23 02:58:42;;;;;;;;;;;;;;;19.38;58.90;100413.13;1055055;27;696;-67
2022/05/23 02:59:33;;;;;;;;;;;;;;;19.37;59.31;100417.69;1053577;28;665;-66
2022/05/23 03:00:24;;;;;;;;;;;;;;;19.38;58.89;100421.22;1053057;28;625;-66
2022/05/23 03:01:14;;;;;;;;;;;;;;;19.36;59.54;100413.28;1053583;28;661;-68
2022/05/23 03:03:13;;;;;;;;;;;;;;;19.36;59.25;100410.59;1053507;28;645;-67
2022/05/23 03:04:04;;;;;;;;;;;;;;;19.36;59.37;100407.03;1053397;28;705;-67
2022/05/23 03:04:54;;;;;;;;;;;;;;;19.36;58.73;100407.03;1052879;28;657;-67
2022/05/23 03:05:45;;;;;;;;;;;;;;;19.36;58.71;100404.34;1053509;28;700;-67
2022/05/23 03:06:35;;;;;;;;;;;;;;;19.35;59.07;100399.94;1053540;28;875;-67
2022/05/23 03:07:25;;;;;;;;;;;;;;;19.35;58.97;100399.94;1053076;28;622;-67
2022/05/23 03:08:16;;;;;;;;;;;;;;;19.35;59.13;100406.19;1053015;28;1146;-67
2022/05/23 03:09:08;;;;;;;;;;;;;;;19.34;58.54;100399.13;1057685;28;1698;-66
2022/05/23 03:09:58;;;;;;;;;;;;;;;19.35;59.00;100398.09;1054533;28;664;-67
2022/05/23 03:10:49;;;;;;;;;;;;;;;19.35;59.49;100391.84;1049860;28;692;-67
2022/05/23 03:11:39;;;;;;;;;;;;;;;19.34;58.96;100393.72;1050258;28;558;-67
2022/05/23 03:12:29;;;;;;;;;;;;;;;19.34;58.35;100392.88;1050437;28;635;-67
2022/05/23 03:13:20;;;;;;;;;;;;;;;19.33;59.43;100389.31;1049975;28;617;-67
2022/05/23 03:14:10;;;;;;;;;;;;;;;19.34;58.99;100387.47;1049327;28;677;-67
2022/05/23 03:15:01;;;;;;;;;;;;;;;19.33;58.76;100386.63;1049875;28;621;-67
2022/05/23 03:15:51;;;;;;;;;;;;;;;19.34;59.13;100390.19;1053824;28;622;-67
2022/05/23 03:16:42;;;;;;;;;;;;;;;19.33;59.10;100391.19;1053874;28;602;-67
2022/05/23 03:17:32;;;;;;;;;;;;;;;19.33;59.36;100383.09;1050151;28;1719;-67
2022/05/23 03:18:24;;;;;;;;;;;;;;;19.33;59.29;100377.69;1049858;28;661;-67
2022/05/23 03:19:14;;;;;;;;;;;;;;;19.32;59.00;100375.97;1049953;28;633;-66
2022/05/23 03:20:05;;;;;;;;;;;;;;;19.32;58.50;100381.38;1049924;28;625;-66
2022/05/23 03:20:55;;;;;;;;;;;;;;;19.32;58.82;100378.69;1049810;28;685;-66
2022/05/23 03:27:49;;;;;;;;;;;;;;;19.30;58.88;100345.59;1041664;28;634;-67
2022/05/23 03:28:40;;;;;;;;;;;;;;;19.29;59.22;100342.03;1040546;28;677;-67
2022/05/23 03:29:30;;;;;;;;;;;;;;;19.29;58.69;100341.19;1041761;28;627;-67
2022/05/23 03:30:21;;;;;;;;;;;;;;;19.29;59.47;100339.34;1040544;28;1067;-68
2022/05/23 03:31:11;;;;;;;;;;;;;;;19.28;59.31;100342.19;1040567;28;721;-67
2022/05/23 03:32:02;;;;;;;;;;;;;;;19.28;59.00;100334.09;1040585;28;642;-68
2022/05/23 03:32:52;;;;;;;;;;;;;;;19.28;59.16;100329.53;1040605;28;697;-67
2022/05/23 03:33:42;;;;;;;;;;;;;;;19.27;58.87;100322.44;1041222;28;652;-67
2022/05/23 03:34:33;;;;;;;;;;;;;;;19.28;58.46;100323.28;1040640;28;732;-65
2022/05/23 03:35:23;;;;;;;;;;;;;;;19.28;59.60;100318.72;1037535;28;732;-67
2022/05/23 03:36:14;;;;;;;;;;;;;;;19.28;59.19;100315.19;1037215;28;670;-66
2022/05/23 03:37:04;;;;;;;;;;;;;;;19.27;58.77;100314.34;1041060;28;673;-66
2022/05/23 03:37:55;;;;;;;;;;;;;;;19.27;59.19;100308.94;1040631;28;573;-67
2022/05/23 03:38:45;;;;;;;;;;;;;;;19.26;59.12;100309.94;1040762;28;622;-69
2022/05/23 03:39:36;;;;;;;;;;;;;;;19.27;58.58;100302.69;1040558;28;599;-68
2022/05/23 03:40:26;;;;;;;;;;;;;;;19.27;58.88;100297.28;1040598;28;744;-67
2022/05/23 03:41:17;;;;;;;;;;;;;;;19.27;59.34;100300.00;1040541;28;764;-67
2022/05/23 03:42:07;;;;;;;;;;;;;;;19.27;59.41;100294.59;1040491;28;791;-69
2022/05/23 03:42:58;;;;;;;;;;;;;;;19.26;58.58;100293.75;1040534;28;1113;-68
2022/05/23 03:43:48;;;;;;;;;;;;;;;19.25;58.68;100296.59;1040599;28;661;-69
2022/05/23 03:44:39;;;;;;;;;;;;;;;19.25;59.26;100297.44;1040378;28;1957;-69
2022/05/23 03:45:30;;;;;;;;;;;;;;;19.26;58.60;100307.25;1038003;28;728;-67
2022/05/23 03:46:21;;;;;;;;;;;;;;;19.26;59.11;100303.69;1036325;28;1717;-68
2022/05/23 03:47:11;;;;;;;;;;;;;;;19.26;58.58;100304.53;1041016;28;771;-68
2022/05/23 03:48:03;;;;;;;;;;;;;;;19.26;59.40;100311.81;1041581;28;618;-68
2022/05/23 03:48:53;;;;;;;;;;;;;;;19.27;59.05;100305.38;1044886;28;1189;-66
2022/05/23 03:49:44;;;;;;;;;;;;;;;19.26;58.59;100303.69;1045174;28;1078;-68
2022/05/23 03:50:34;;;;;;;;;;;;;;;19.25;59.41;100302.00;1044431;28;646;-67
2022/05/23 03:51:25;;;;;;;;;;;;;;;19.26;58.94;100301.84;1043001;28;611;-67
2022/05/23 03:52:15;;;;;;;;;;;;;;;19.25;58.73;100296.59;1045541;28;731;-67
2022/05/23 03:53:06;;;;;;;;;;;;;;;19.25;59.37;100297.44;1042928;28;567;-69
2022/05/23 03:53:56;;;;;;;;;;;;;;;19.26;58.88;100298.28;1045056;28;677;-68
2022/05/23 03:54:47;;;;;;;;;;;;;;;19.26;59.07;100298.28;1045354;28;648;-68
2022/05/23 03:55:37;;;;;;;;;;;;;;;19.25;58.53;100289.34;1041070;28;653;-68
2022/05/23 03:56:28;;;;;;;;;;;;;;;19.24;58.76;100284.94;1035221;28;674;-68
2022/05/23 03:57:18;;;;;;;;;;;;;;;19.25;58.65;100285.81;1039386;28;643;-66
2022/05/23 03:58:08;;;;;;;;;;;;;;;19.25;59.09;100281.25;1043297;28;614;-66
2022/05/23 03:58:59;;;;;;;;;;;;;;;19.26;58.82;100287.50;1045292;28;700;-66
2022/05/23 03:59:50;;;;;;;;;;;;;;;19.26;58.71;100279.38;1044506;28;614;-66
2022/05/23 04:00:49;;;;;;;;;;;;;;;19.26;59.22;100282.09;1044049;28;716;-66
2022/05/23 04:01:39;;;;;;;;;;;;;;;19.26;58.49;100280.22;1044850;28;669;-66
2022/05/23 04:02:29;;;;;;;;;;;;;;;19.25;58.64;100278.53;1045193;28;1680;-66
2022/05/23 04:03:20;;;;;;;;;;;;;;;19.25;59.23;100283.09;1057324;28;648;-66
2022/05/23 04:04:10;;;;;;;;;;;;;;;19.24;59.13;100279.56;1057181;28;2246;-66
2022/05/23 04:05:01;;;;;;;;;;;;;;;19.24;58.41;100274.16;1049594;28;684;-66
2022/05/23 04:05:51;;;;;;;;;;;;;;;19.24;59.01;100278.72;1049988;28;620;-66
2022/05/23 04:06:42;;;;;;;;;;;;;;;19.26;58.47;100271.28;1053817;28;646;-66
2022/05/23 04:07:33;;;;;;;;;;;;;;;19.25;58.95;100269.59;1053789;28;625;-66
2022/05/23 04:08:23;;;;;;;;;;;;;;;19.24;59.09;100267.91;1057777;28;700;-66
2022/05/23 04:09:14;;;;;;;;;;;;;;;19.25;58.58;100266.88;1057864;28;648;-66
2022/05/23 04:10:04;;;;;;;;;;;;;;;19.23;58.69;100268.91;1053797;28;777;-66
2022/05/23 04:10:54;;;;;;;;;;;;;;;19.24;58.79;100263.34;1052867;28;1615;-66
2022/05/23 04:11:45;;;;;;;;;;;;;;;19.25;58.91;100261.47;1052748;28;646;-66
2022/05/23 04:12:36;;;;;;;;;;;;;;;19.24;58.49;100265.19;1053826;28;716;-66
2022/05/23 04:13:26;;;;;;;;;;;;;;;19.24;58.95;100265.19;1053194;28;672;-66
2022/05/23 04:14:17;;;;;;;;;;;;;;;19.24;58.54;100259.78;1053333;28;625;-66
2022/05/23 04:15:07;;;;;;;;;;;;;;;19.24;58.46;100259.78;1053342;28;630;-66
2022/05/23 04:15:58;;;;;;;;;;;;;;;19.23;59.05;100263.50;1053808;28;590;-66
2022/05/23 04:16:48;;;;;;;;;;;;;;;19.22;58.87;100256.41;1053266;28;629;-66
2022/05/23 04:17:39;;;;;;;;;;;;;;;19.23;58.61;100260.81;1052777;28;734;-66
2022/05/23 04:18:30;;;;;;;;;;;;;;;19.23;59.15;100255.41;1053356;28;665;-66
2022/05/23 04:19:20;;;;;;;;;;;;;;;19.22;59.01;100259.97;1053299;28;633;-66
2022/05/23 04:20:11;;;;;;;;;;;;;;;19.23;58.71;100256.25;1053968;28;629;-66
2022/05/23 04:21:04;;;;;;;;;;;;;;;19.23;58.54;100260.81;1050276;28;690;-66
2022/05/23 04:21:54;;;;;;;;;;;;;;;19.22;58.95;100265.38;1049627;28;661;-67
2022/05/23 04:22:45;;;;;;;;;;;;;;;19.22;58.54;100259.13;1048879;28;1922;-66
2022/05/23 04:23:35;;;;;;;;;;;;;;;19.23;59.50;100260.81;1049651;28;630;-66
2022/05/23 04:24:26;;;;;;;;;;;;;;;19.22;59.29;100259.13;1049519;28;1889;-65
2022/05/23 04:25:16;;;;;;;;;;;;;;;19.23;58.38;100263.50;1050189;28;653;-65
2022/05/23 04:26:08;;;;;;;;;;;;;;;19.22;59.00;100261.81;1049174;28;755;-65
2022/05/23 04:26:59;;;;;;;;;;;;;;;19.22;59.01;100257.25;1050196;28;680;-67
2022/05/23 04:27:49;;;;;;;;;;;;;;;19.22;59.14;100254.56;1049527;28;637;-65
2022/05/23 04:28:40;;;;;;;;;;;;;;;19.23;59.16;100260.81;1049634;28;692;-66
2022/05/23 04:29:30;;;;;;;;;;;;;;;19.22;58.15;100256.41;1049546;28;651;-65
2022/05/23 04:30:20;;;;;;;;;;;;;;;19.22;59.38;100257.25;1049663;28;710;-65
2022/05/23 04:31:11;;;;;;;;;;;;;;;19.24;58.75;100262.50;1050300;28;645;-66
2022/05/23 04:32:01;;;;;;;;;;;;;;;19.23;58.18;100255.41;1050200;28;878;-66
2022/05/23 04:35:14;;;;;;;;;;;;;;;19.23;58.66;100260.81;1050329;28;667;-65
2022/05/23 04:36:04;;;;;;;;;;;;;;;19.24;59.49;100257.09;1049589;28;633;-65
2022/05/23 04:36:54;;;;;;;;;;;;;;;19.23;59.03;100260.81;1049515;28;649;-65
2022/05/23 04:37:45;;;;;;;;;;;;;;;19.24;59.07;100254.41;1050088;28;664;-65
2022/05/23 04:38:35;;;;;;;;;;;;;;;19.25;58.89;100261.47;1053519;28;625;-66
2022/05/23 04:39:26;;;;;;;;;;;;;;;19.24;58.71;100266.03;1053487;28;708;-67
2022/05/23 04:40:16;;;;;;;;;;;;;;;19.25;58.95;100253.38;1050255;28;688;-66
2022/05/23 04:41:07;;;;;;;;;;;;;;;19.25;59.03;100258.78;1049620;28;614;-65
2022/05/23 04:42:00;;;;;;;;;;;;;;;19.25;58.78;100254.22;1049536;28;732;-66
2022/05/23 04:42:50;;;;;;;;;;;;;;;19.26;58.67;100261.31;1049042;28;709;-67
2022/05/23 04:43:41;;;;;;;;;;;;;;;19.27;58.35;100256.75;1048426;28;574;-67